Centertown, Missouri
Current Conditions -  °F | °C
As of 9:53 AM on Wednesday 22 Oct 2014 (Local Time) from KJEF Reporting Station
Clear Clear  
Wind Chill: 52°   Ceiling: Unl
Heat Index: 52°   Visibility: 10mi
Dew Point: 44°   Wind: 8mph
Humidity: 74%   Direction: 100°E
Pressure: 30.3"   Gusts: NA
Location:  38.62°N, 92.41°W
Report Text: KJEF 221453Z 10007KT 10SM CLR 11/07 A3030 RMK AO2 SLP252 T01110067 53012
Loading
Personal Weather Stations






























Interactive Weather Map
Tropical Storm Tracking
New forecast layout! Learn more

10-Day Weather Forecast

Advertisements
Track Severe Weather on mobile